Time;durP1;ratioP1;P1;durP2;ratioP2;P2;SDS_P1;SDS_P2;PMS_P1;PMS_P2;Temp;Humidity;BMP_temperature;BMP_pressure;BME280_temperature;BME280_humidity;BME280_pressure;Samples;Min_cycle;Max_cycle;Signal;HPM_P1;HPM_P2
2023/06/25 00:01:15;;;;;;;10.65;7.65;;;;;;;14.21;100.00;94330.44;5048775;28;20123;-59
2023/06/25 00:03:41;;;;;;;10.20;7.72;;;;;;;14.24;100.00;94329.56;5037666;28;20039;-61
2023/06/25 00:06:08;;;;;;;10.05;7.43;;;;;;;14.21;100.00;94326.91;5029428;28;20076;-59
2023/06/25 00:08:35;;;;;;;10.07;7.50;;;;;;;14.16;100.00;94326.19;5027783;28;21604;-58
2023/06/25 00:11:02;;;;;;;10.93;7.50;;;;;;;14.18;100.00;94325.75;5029257;28;20047;-60
2023/06/25 00:13:29;;;;;;;9.73;7.40;;;;;;;14.16;100.00;94326.19;5028476;28;20052;-60
2023/06/25 00:15:55;;;;;;;9.57;7.00;;;;;;;14.13;100.00;94320.75;5029336;28;20045;-59
2023/06/25 00:18:25;;;;;;;11.23;7.78;;;;;;;14.10;100.00;94318.84;5028269;28;20048;-62
2023/06/25 00:20:51;;;;;;;18.30;13.40;;;;;;;13.82;100.00;94321.00;5060297;28;20099;-62
2023/06/25 00:23:19;;;;;;;11.63;8.63;;;;;;;13.39;100.00;94322.66;5028320;28;20063;-60
2023/06/25 00:25:46;;;;;;;10.23;7.38;;;;;;;13.51;100.00;94321.25;5029168;28;20508;-58
2023/06/25 00:28:13;;;;;;;11.52;7.68;;;;;;;13.53;100.00;94318.84;5027554;28;20047;-63
2023/06/25 00:30:40;;;;;;;10.20;8.00;;;;;;;13.53;100.00;94316.09;5040645;28;20116;-58
2023/06/25 00:33:07;;;;;;;10.80;7.95;;;;;;;13.61;100.00;94319.50;5048648;28;20426;-58
2023/06/25 00:35:55;;;;;;;12.27;8.10;;;;;;;13.64;100.00;94310.34;5047773;28;20838;-59
2023/06/25 00:38:21;;;;;;;10.15;7.45;;;;;;;13.69;100.00;94312.63;5047902;28;20653;-59
2023/06/25 00:40:50;;;;;;;10.60;7.80;;;;;;;13.69;100.00;94312.63;5047536;28;20420;-58
2023/06/25 00:43:20;;;;;;;10.82;7.47;;;;;;;13.49;100.00;94311.88;5047904;28;20045;-60
2023/06/25 00:45:47;;;;;;;10.93;7.25;;;;;;;13.44;100.00;94310.38;5048893;28;20048;-58
2023/06/25 00:48:14;;;;;;;10.77;8.03;;;;;;;13.45;100.00;94306.41;5047704;28;20436;-63
2023/06/25 00:50:41;;;;;;;12.25;8.38;;;;;;;13.41;100.00;94310.44;5048534;28;20041;-60
2023/06/25 00:53:09;;;;;;;21.17;14.85;;;;;;;13.38;100.00;94304.59;5048597;28;20056;-57
2023/06/25 00:55:36;;;;;;;13.43;7.97;;;;;;;13.24;100.00;94306.78;5047126;28;20041;-57
2023/06/25 00:58:04;;;;;;;11.70;8.25;;;;;;;13.34;100.00;94298.38;5048352;28;20041;-57
2023/06/25 01:00:33;;;;;;;11.53;8.40;;;;;;;13.25;100.00;94294.59;5046318;28;20117;-58
2023/06/25 01:03:26;;;;;;;10.23;7.20;;;;;;;13.16;100.00;94298.69;5048353;28;20036;-57
2023/06/25 01:06:12;;;;;;;12.23;7.32;;;;;;;13.18;100.00;94296.28;5047479;28;20853;-60
2023/06/25 01:08:43;;;;;;;11.30;7.88;;;;;;;13.18;100.00;94296.28;5046997;28;20040;-58
2023/06/25 01:11:10;;;;;;;10.25;7.60;;;;;;;13.09;100.00;94293.28;5047947;28;20041;-60
2023/06/25 01:13:38;;;;;;;10.43;7.90;;;;;;;12.95;100.00;94294.34;5046986;28;21446;-58
2023/06/25 01:16:04;;;;;;;11.25;8.02;;;;;;;12.83;100.00;94296.94;5046779;28;20466;-60
2023/06/25 01:18:32;;;;;;;49.45;30.38;;;;;;;12.79;100.00;94291.47;5047399;28;20052;-59
2023/06/25 01:21:00;;;;;;;14.25;9.48;;;;;;;12.78;100.00;94284.44;5048271;28;20043;-60
2023/06/25 01:23:29;;;;;;;10.82;7.97;;;;;;;12.74;100.00;94290.00;5047296;28;20048;-58
2023/06/25 01:25:56;;;;;;;9.80;7.40;;;;;;;12.73;100.00;94284.91;5030708;28;20053;-58
2023/06/25 01:28:23;;;;;;;11.45;7.90;;;;;;;12.74;100.00;94281.75;5047479;28;20049;-57
2023/06/25 01:30:52;;;;;;;11.13;8.10;;;;;;;12.84;100.00;94280.00;5047884;28;20071;-60
2023/06/25 01:33:25;;;;;;;11.93;8.10;;;;;;;12.63;100.00;94283.88;5047119;28;20040;-57
2023/06/25 01:35:53;;;;;;;10.90;7.70;;;;;;;12.68;100.00;94279.91;5047735;28;20047;-58
2023/06/25 01:38:20;;;;;;;10.93;7.83;;;;;;;12.63;100.00;94274.84;5046984;28;20045;-57
2023/06/25 01:40:47;;;;;;;10.70;7.70;;;;;;;12.66;100.00;94282.28;5047849;28;20038;-57
2023/06/25 01:43:14;;;;;;;10.18;7.85;;;;;;;12.58;100.00;94265.88;5047376;28;20059;-57
2023/06/25 01:45:41;;;;;;;12.07;8.40;;;;;;;12.46;100.00;94280.25;5029568;28;20053;-58
2023/06/25 01:48:08;;;;;;;10.70;8.02;;;;;;;12.24;100.00;94263.31;5047696;28;20071;-57
2023/06/25 01:50:35;;;;;;;10.47;7.97;;;;;;;12.34;100.00;94272.59;5046574;28;20040;-59
2023/06/25 01:53:02;;;;;;;10.50;8.35;;;;;;;12.16;100.00;94268.16;5047782;28;20400;-57
2023/06/25 01:55:29;;;;;;;12.13;8.48;;;;;;;12.09;100.00;94272.97;5047160;28;20044;-59
2023/06/25 01:57:55;;;;;;;12.88;8.10;;;;;;;12.21;100.00;94257.84;5047908;28;20132;-57
2023/06/25 02:00:23;;;;;;;11.13;8.18;;;;;;;12.07;100.00;94256.09;5046819;28;20056;-58
2023/06/25 02:02:49;;;;;;;11.47;8.33;;;;;;;12.11;100.00;94262.34;5047789;28;20192;-58
2023/06/25 02:05:16;;;;;;;11.68;8.43;;;;;;;12.07;100.00;94265.13;5046862;28;20064;-58
2023/06/25 02:07:43;;;;;;;11.07;8.05;;;;;;;12.18;100.00;94249.25;5047447;28;20041;-60
2023/06/25 02:10:12;;;;;;;11.93;8.45;;;;;;;12.22;100.00;94242.91;5047558;28;20040;-57
2023/06/25 02:12:38;;;;;;;11.48;8.15;;;;;;;12.24;100.00;94238.53;5046270;28;22218;-57
2023/06/25 02:15:06;;;;;;;9.97;7.50;;;;;;;12.28;100.00;94244.78;5046124;28;20040;-58
2023/06/25 02:17:32;;;;;;;11.07;8.00;;;;;;;12.26;100.00;94232.63;5045297;28;20041;-58
2023/06/25 02:19:59;;;;;;;12.88;8.45;;;;;;;12.20;100.00;94229.56;5047373;28;20452;-60
2023/06/25 02:22:26;;;;;;;11.85;8.27;;;;;;;12.22;100.00;94231.91;5049256;28;20093;-59
2023/06/25 02:24:53;;;;;;;11.27;7.82;;;;;;;12.11;100.00;94243.06;5083453;28;20397;-59
2023/06/25 02:27:19;;;;;;;10.60;7.93;;;;;;;12.13;100.00;94240.69;5082973;28;20053;-60
2023/06/25 02:29:46;;;;;;;10.65;7.95;;;;;;;12.19;100.00;94228.00;5066411;28;20045;-58
2023/06/25 02:32:13;;;;;;;11.45;8.15;;;;;;;12.18;100.00;94229.97;5050275;28;20060;-59
2023/06/25 02:34:40;;;;;;;11.30;8.40;;;;;;;12.11;100.00;94232.88;5050295;28;20132;-58
2023/06/25 02:37:16;;;;;;;13.68;7.80;;;;;;;12.08;100.00;94233.69;5051034;28;20036;-61
2023/06/25 02:39:43;;;;;;;12.17;8.27;;;;;;;11.97;100.00;94230.31;5049893;28;20037;-60
2023/06/25 02:42:10;;;;;;;11.38;8.23;;;;;;;11.88;100.00;94232.81;5050881;28;20044;-58
2023/06/25 02:44:36;;;;;;;12.60;8.07;;;;;;;11.89;100.00;94243.41;5049619;28;21782;-58
2023/06/25 02:47:04;;;;;;;11.18;8.27;;;;;;;11.83;100.00;94233.25;5050619;28;20056;-61
2023/06/25 02:49:30;;;;;;;11.55;8.23;;;;;;;11.76;100.00;94236.91;5050053;28;20421;-58
2023/06/25 02:51:57;;;;;;;11.53;8.33;;;;;;;11.82;100.00;94234.47;5082852;28;20051;-60
2023/06/25 02:54:24;;;;;;;11.02;7.82;;;;;;;11.83;100.00;94225.81;5049993;28;20040;-58
2023/06/25 02:56:52;;;;;;;11.02;7.97;;;;;;;11.79;100.00;94225.84;5050488;28;20033;-58
2023/06/25 02:59:19;;;;;;;10.55;8.10;;;;;;;11.80;100.00;94223.88;5049963;28;20044;-57
2023/06/25 03:01:47;;;;;;;10.68;8.25;;;;;;;11.70;100.00;94214.59;5050112;28;20055;-60
2023/06/25 03:04:13;;;;;;;11.43;7.73;;;;;;;11.71;100.00;94220.84;5048663;28;20121;-60
2023/06/25 03:06:41;;;;;;;11.27;8.43;;;;;;;11.58;100.00;94213.19;5050322;28;20044;-58
2023/06/25 03:09:08;;;;;;;10.82;8.02;;;;;;;11.53;100.00;94213.66;5050646;28;20478;-60
2023/06/25 03:11:35;;;;;;;11.50;8.05;;;;;;;11.56;100.00;94212.81;5049801;28;20486;-57
2023/06/25 03:14:02;;;;;;;11.45;8.07;;;;;;;11.57;100.00;94213.63;5048983;28;20083;-58
2023/06/25 03:16:29;;;;;;;13.77;9.00;;;;;;;11.44;100.00;94215.38;5049389;28;20378;-57
2023/06/25 03:18:56;;;;;;;12.73;8.43;;;;;;;11.49;100.00;94215.69;5050354;28;20048;-58
2023/06/25 03:21:22;;;;;;;11.15;7.97;;;;;;;11.47;100.00;94214.53;5049794;28;20041;-60
2023/06/25 03:23:49;;;;;;;11.90;8.00;;;;;;;11.27;100.00;94217.94;5050132;28;20045;-58
2023/06/25 03:26:16;;;;;;;11.98;8.30;;;;;;;11.19;100.00;94225.50;5049478;28;20060;-58
2023/06/25 03:28:43;;;;;;;11.40;8.03;;;;;;;11.28;100.00;94224.22;5049744;28;20779;-58
2023/06/25 03:31:09;;;;;;;12.13;8.23;;;;;;;11.36;100.00;94214.69;5049888;28;20045;-59
2023/06/25 03:33:36;;;;;;;11.77;8.65;;;;;;;11.42;100.00;94206.75;5048666;28;20806;-58
2023/06/25 03:36:03;;;;;;;11.75;8.23;;;;;;;11.50;100.00;94208.97;5081640;28;20037;-60
2023/06/25 03:38:30;;;;;;;17.40;12.07;;;;;;;11.50;100.00;94217.22;5049199;28;20052;-58
2023/06/25 03:40:57;;;;;;;11.53;8.60;;;;;;;11.16;100.00;94218.06;5049777;28;20045;-58
2023/06/25 03:43:23;;;;;;;12.10;8.60;;;;;;;10.93;100.00;94217.97;5080943;28;20049;-58
2023/06/25 03:45:50;;;;;;;11.85;8.50;;;;;;;11.07;100.00;94226.03;5049573;28;20185;-59
2023/06/25 03:48:17;;;;;;;13.65;8.85;;;;;;;11.10;100.00;94227.94;5049366;28;20051;-58
2023/06/25 03:50:44;;;;;;;14.43;8.40;;;;;;;11.20;100.00;94229.00;5049481;28;20037;-59
2023/06/25 03:53:11;;;;;;;12.33;8.30;;;;;;;11.23;100.00;94233.69;5049346;28;20037;-57
2023/06/25 03:55:37;;;;;;;11.45;8.30;;;;;;;11.35;100.00;94233.16;5049265;28;20410;-58
2023/06/25 03:58:04;;;;;;;11.80;8.82;;;;;;;11.30;100.00;94239.09;5044266;28;20084;-58
2023/06/25 04:00:31;;;;;;;13.00;8.93;;;;;;;11.40;100.00;94235.41;5032426;28;20121;-61
2023/06/25 04:02:58;;;;;;;13.35;8.93;;;;;;;11.50;100.00;94225.47;5047854;28;20037;-59
2023/06/25 04:05:25;;;;;;;12.03;8.77;;;;;;;11.53;100.00;94227.41;5048934;28;20048;-58
2023/06/25 04:07:51;;;;;;;12.07;8.60;;;;;;;11.60;100.00;94219.03;5049472;28;20045;-58
2023/06/25 04:10:18;;;;;;;11.30;8.07;;;;;;;11.72;100.00;94225.94;5047162;28;20040;-57
2023/06/25 04:12:45;;;;;;;12.23;7.82;;;;;;;11.79;100.00;94223.09;5039443;28;20049;-58
2023/06/25 04:15:12;;;;;;;11.80;8.13;;;;;;;11.85;100.00;94217.13;5028809;28;20066;-60
2023/06/25 04:17:39;;;;;;;11.77;8.20;;;;;;;11.78;100.00;94215.28;5028849;28;20037;-60
2023/06/25 04:20:07;;;;;;;12.80;8.07;;;;;;;11.84;100.00;94216.34;5029145;28;20107;-58
2023/06/25 04:22:34;;;;;;;12.30;8.70;;;;;;;11.69;100.00;94212.25;5028327;28;20042;-57
2023/06/25 04:25:01;;;;;;;13.13;8.50;;;;;;;11.78;100.00;94215.28;5028939;28;20049;-57
2023/06/25 04:27:28;;;;;;;11.65;8.50;;;;;;;12.27;100.00;94209.41;5028272;28;20080;-63
2023/06/25 04:29:54;;;;;;;11.33;8.50;;;;;;;14.56;100.00;94203.78;5034746;28;20053;-60
2023/06/25 04:32:21;;;;;;;10.05;7.68;;;;;;;17.00;100.00;94192.84;5048483;28;20699;-60
2023/06/25 04:34:48;;;;;;;10.68;7.72;;;;;;;18.64;100.00;94184.97;5048225;28;20178;-59
2023/06/25 04:37:14;;;;;;;9.48;7.03;;;;;;;20.16;89.02;94177.78;5048142;28;20037;-59
2023/06/25 04:39:41;;;;;;;9.73;7.45;;;;;;;21.15;79.19;94174.03;5048252;28;20045;-59
2023/06/25 04:42:08;;;;;;;8.80;7.33;;;;;;;21.15;73.25;94171.25;5048469;28;20205;-60
2023/06/25 04:44:35;;;;;;;8.95;7.00;;;;;;;19.93;81.49;94187.63;5047437;28;20071;-61
2023/06/25 04:47:02;;;;;;;9.23;7.82;;;;;;;17.54;93.77;94192.41;5048595;28;20634;-60
2023/06/25 04:49:28;;;;;;;10.38;7.80;;;;;;;16.17;100.00;94196.38;5047831;28;20071;-64
2023/06/25 04:51:55;;;;;;;9.75;7.90;;;;;;;14.86;100.00;94193.53;5048403;28;20037;-58
2023/06/25 04:54:22;;;;;;;9.80;7.93;;;;;;;14.74;100.00;94195.03;5048029;28;20187;-60
2023/06/25 04:56:48;;;;;;;10.82;8.90;;;;;;;14.35;100.00;94196.81;5048140;28;20849;-58
2023/06/25 04:59:15;;;;;;;11.82;8.30;;;;;;;14.22;100.00;94199.47;5047773;28;20047;-58
2023/06/25 05:01:42;;;;;;;10.23;7.90;;;;;;;14.12;100.00;94198.53;5033968;28;20441;-59
2023/06/25 05:04:09;;;;;;;12.20;7.78;;;;;;;14.18;100.00;94201.56;5028234;28;20053;-58
2023/06/25 05:06:36;;;;;;;11.13;8.20;;;;;;;13.54;100.00;94196.34;5026751;28;20324;-58
2023/06/25 05:09:03;;;;;;;11.80;8.70;;;;;;;13.65;100.00;94195.31;5060056;28;20041;-59
2023/06/25 05:11:30;;;;;;;10.63;8.10;;;;;;;13.69;100.00;94191.28;5030165;28;20045;-64
2023/06/25 05:13:56;;;;;;;12.07;8.60;;;;;;;13.65;100.00;94192.56;5028053;28;20041;-60
2023/06/25 05:16:23;;;;;;;12.20;8.77;;;;;;;14.23;100.00;94201.03;5042976;28;20053;-58
2023/06/25 05:18:50;;;;;;;13.73;8.50;;;;;;;16.65;100.00;94196.38;5026734;28;20037;-58
2023/06/25 05:21:18;;;;;;;9.57;7.57;;;;;;;19.08;99.57;94195.81;5027609;28;20045;-59
2023/06/25 05:23:57;;;;;;;11.25;7.82;;;;;;;19.93;90.24;94187.63;5027861;28;20398;-62
2023/06/25 05:26:24;;;;;;;9.00;7.47;;;;;;;21.20;79.75;94191.38;5027879;28;20678;-59
2023/06/25 05:28:51;;;;;;;9.15;7.50;;;;;;;21.84;76.23;94196.34;5038743;28;20615;-62
2023/06/25 05:31:18;;;;;;;9.80;7.43;;;;;;;22.57;70.77;94191.13;5076691;28;20041;-60
2023/06/25 05:33:45;;;;;;;9.10;7.00;;;;;;;23.61;65.92;94189.84;5047527;28;20041;-59
2023/06/25 05:36:14;;;;;;;7.70;6.70;;;;;;;23.84;65.36;94176.81;5047049;28;20406;-61
2023/06/25 05:38:40;;;;;;;8.52;6.78;;;;;;;25.08;62.10;94189.63;5047567;28;20414;-60
2023/06/25 05:41:08;;;;;;;8.18;6.03;;;;;;;27.62;52.39;94181.03;5046928;28;20109;-59
2023/06/25 05:43:34;;;;;;;7.43;5.80;;;;;;;26.67;51.27;94182.16;5047136;28;20432;-59
2023/06/25 05:46:01;;;;;;;7.05;5.85;;;;;;;27.72;45.79;94186.38;5047796;28;20049;-60
2023/06/25 05:48:28;;;;;;;7.85;6.40;;;;;;;25.09;54.37;94201.59;5047553;28;20045;-62
2023/06/25 05:50:54;;;;;;;7.13;5.85;;;;;;;27.49;49.72;94197.78;5046524;28;20045;-61
2023/06/25 05:53:23;;;;;;;8.70;6.50;;;;;;;25.71;52.20;94199.00;5047285;28;20049;-60
2023/06/25 05:55:50;;;;;;;7.20;6.43;;;;;;;26.83;51.37;94197.50;5047229;28;20044;-60
2023/06/25 05:58:38;;;;;;;6.90;5.85;;;;;;;28.65;45.09;94195.94;5016209;27;20389;-66
2023/06/25 06:01:05;;;;;;;6.70;5.85;;;;;;;29.30;44.39;94190.63;5026936;28;20045;-60
2023/06/25 06:03:32;;;;;;;6.67;5.97;;;;;;;30.40;41.81;94183.13;5033049;28;20055;-60
2023/06/25 06:05:59;;;;;;;6.60;5.80;;;;;;;29.51;41.16;94196.53;5035291;28;20607;-65
2023/06/25 06:08:26;;;;;;;6.47;5.78;;;;;;;27.54;45.80;94194.16;5033786;28;20049;-60
2023/06/25 06:10:54;;;;;;;6.22;5.10;;;;;;;29.84;41.38;94192.47;5028556;28;20376;-60
2023/06/25 06:13:21;;;;;;;6.78;5.88;;;;;;;27.09;46.48;94191.53;5040515;28;20045;-63
2023/06/25 06:24:36;;;;;;;7.10;5.30;;;;;;;32.86;35.57;94165.53;5035929;27;20409;-62
2023/06/25 06:37:58;;;;;;;5.30;4.40;;;;;;;33.51;25.63;94159.84;5058148;28;20914;-63
2023/06/25 06:40:25;;;;;;;5.13;4.45;;;;;;;34.19;25.90;94164.28;5031472;28;20049;-60
2023/06/25 06:42:52;;;;;;;6.27;4.77;;;;;;;29.28;30.54;94177.78;5067475;28;20064;-60
2023/06/25 06:48:33;;;;;;;5.50;4.15;;;;;;;33.37;26.82;94161.31;5074676;27;20389;-63
2023/06/25 06:51:00;;;;;;;4.50;3.95;;;;;;;33.39;26.05;94167.94;5057994;28;20040;-60
2023/06/25 06:56:21;;;;;;;6.80;4.90;;;;;;;32.14;28.08;94166.06;5032333;28;20918;-61
2023/06/25 06:58:48;;;;;;;5.20;4.35;;;;;;;33.79;25.51;94170.41;5013705;28;20038;-60
2023/06/25 07:01:15;;;;;;;6.18;4.50;;;;;;;32.24;26.55;94172.78;5011814;28;20401;-60
2023/06/25 07:06:16;;;;;;;5.85;4.10;;;;;;;35.27;24.93;94169.22;5086381;27;20354;-60
2023/06/25 07:12:52;;;;;;;5.55;4.10;;;;;;;35.04;24.36;94172.88;5055278;28;20842;-61
2023/06/25 07:15:19;;;;;;;6.15;4.35;;;;;;;30.92;28.49;94161.13;5037171;28;20041;-59
2023/06/25 07:17:46;;;;;;;5.30;3.97;;;;;;;33.15;26.51;94172.00;5038345;28;20067;-59
2023/06/25 07:20:13;;;;;;;5.35;4.40;;;;;;;31.80;27.35;94164.72;5039403;28;20076;-61
2023/06/25 07:22:40;;;;;;;6.75;4.35;;;;;;;32.20;26.78;94161.00;5038033;28;20049;-62
2023/06/25 07:25:09;;;;;;;4.60;4.00;;;;;;;31.14;28.66;94165.59;5040300;28;20045;-61
2023/06/25 07:27:36;;;;;;;5.90;3.80;;;;;;;34.10;25.62;94158.34;5034676;28;20736;-60
2023/06/25 07:30:04;;;;;;;5.30;4.60;;;;;;;28.41;30.93;94168.41;5038078;28;20057;-59
2023/06/25 07:37:05;;;;;;;5.28;4.40;;;;;;;33.01;26.80;94157.09;4988614;27;20411;-61
2023/06/25 07:42:01;;;;;;;5.55;4.30;;;;;;;34.03;25.73;94160.63;5040549;27;21090;-64
2023/06/25 07:46:27;;;;;;;6.00;4.60;;;;;;;32.62;25.67;94158.16;5035248;27;20366;-61
2023/06/25 07:48:55;;;;;;;6.40;4.20;;;;;;;32.87;26.15;94161.38;5030600;28;20178;-59
2023/06/25 07:58:33;;;;;;;5.85;4.60;;;;;;;29.60;29.98;94162.97;5052497;27;20469;-61
2023/06/25 08:05:31;;;;;;;5.22;4.15;;;;;;;37.33;22.32;94145.66;5036644;27;20407;-64
2023/06/25 08:07:58;;;;;;;4.97;4.13;;;;;;;36.65;21.92;94147.81;5039207;28;20061;-60
2023/06/25 08:16:01;;;;;;;5.63;4.63;;;;;;;29.64;28.61;94165.47;5040047;28;20704;-57
2023/06/25 08:20:01;;;;;;;6.13;5.03;;;;;;;24.81;35.13;94188.22;5045163;27;20395;-61
2023/06/25 08:24:17;;;;;;;6.72;5.00;;;;;;;34.27;24.87;94166.38;5056715;28;20427;-66
2023/06/25 08:34:50;;;;;;;6.07;4.40;;;;;;;38.44;20.46;94158.19;4995810;28;20395;-63
2023/06/25 08:51:24;;;;;;;5.57;4.82;;;;;;;30.31;27.95;94149.59;5060964;27;20408;-62
2023/06/25 09:16:56;;;;;;;5.82;5.20;;;;;;;27.07;28.65;94165.91;5042437;27;20908;-63
2023/06/25 09:20:31;;;;;;;6.70;5.32;;;;;;;31.24;24.97;94163.06;5034544;27;20412;-64
2023/06/25 09:22:58;;;;;;;7.05;5.53;;;;;;;33.73;21.79;94164.13;5022718;28;20060;-63
2023/06/25 09:25:29;;;;;;;7.57;5.90;;;;;;;28.99;24.70;94151.13;5027065;28;20442;-64
2023/06/25 09:43:18;;;;;;;6.30;5.70;;;;;;;26.90;27.44;94146.25;5040251;27;20403;-63
2023/06/25 09:51:07;;;;;;;6.83;5.80;;;;;;;29.51;26.61;94139.97;5024879;27;20409;-62
2023/06/25 09:55:17;;;;;;;6.57;5.60;;;;;;;30.26;24.99;94127.75;5055649;27;20425;-60
2023/06/25 10:01:23;;;;;;;8.43;6.20;;;;;;;27.36;27.68;94144.78;5055549;27;20398;-62
2023/06/25 10:03:51;;;;;;;7.07;5.50;;;;;;;31.92;24.47;94128.34;5038594;28;20257;-63
2023/06/25 10:07:26;;;;;;;5.77;4.97;;;;;;;31.61;24.26;94130.84;5052208;27;20395;-59
2023/06/25 10:09:54;;;;;;;6.25;5.53;;;;;;;30.14;26.35;94120.75;5029563;28;20452;-60
2023/06/25 10:18:07;;;;;;;6.77;5.90;;;;;;;29.09;24.56;94117.63;5054553;27;20396;-62
2023/06/25 10:22:44;;;;;;;6.03;5.43;;;;;;;30.66;22.79;94108.00;5071472;28;20535;-62
2023/06/25 10:25:10;;;;;;;6.18;5.38;;;;;;;33.03;22.81;94108.22;5070815;28;20511;-62
2023/06/25 10:29:10;;;;;;;7.53;5.47;;;;;;;31.91;24.25;94106.94;5053004;28;20393;-64
2023/06/25 10:43:09;;;;;;;7.93;5.93;;;;;;;30.42;26.55;94092.75;5058034;28;20503;-61
2023/06/25 10:45:36;;;;;;;7.85;6.60;;;;;;;29.00;27.82;94098.22;5059075;28;20043;-61
2023/06/25 10:48:12;;;;;;;7.93;6.43;;;;;;;27.91;29.61;94101.91;5060896;28;20036;-61
2023/06/25 10:56:14;;;;;;;7.53;6.03;;;;;;;29.08;27.41;94096.31;5043317;27;20403;-59
2023/06/25 10:58:44;;;;;;;11.05;7.10;;;;;;;28.75;28.82;94091.84;5058936;28;20063;-63
2023/06/25 11:01:10;;;;;;;7.05;5.72;;;;;;;27.12;30.50;94093.94;5055211;28;20045;-58
2023/06/25 11:03:38;;;;;;;10.43;6.73;;;;;;;26.04;32.52;94099.13;5051933;28;20759;-60
2023/06/25 11:07:13;;;;;;;8.65;6.35;;;;;;;27.88;30.41;94092.44;5053292;28;20407;-61
2023/06/25 11:09:40;;;;;;;7.95;6.60;;;;;;;28.10;29.74;94085.84;5054169;28;20060;-61
2023/06/25 11:14:12;;;;;;;7.30;6.20;;;;;;;28.77;29.61;94083.59;5068943;27;20411;-60
2023/06/25 11:16:47;;;;;;;8.23;6.18;;;;;;;27.82;30.74;94089.63;5050676;28;20056;-61
2023/06/25 11:19:14;;;;;;;8.18;6.63;;;;;;;28.27;30.54;94094.91;5056577;28;20400;-60
2023/06/25 11:21:41;;;;;;;8.25;6.72;;;;;;;27.13;32.00;94087.78;5068138;28;20051;-59
2023/06/25 11:24:08;;;;;;;7.55;6.32;;;;;;;27.39;30.18;94086.63;5067486;28;20051;-60
2023/06/25 11:26:42;;;;;;;7.90;6.47;;;;;;;26.64;32.20;94073.41;5064119;28;20048;-63
2023/06/25 11:29:10;;;;;;;8.18;6.55;;;;;;;26.88;30.28;94082.03;5059976;28;20113;-61
2023/06/25 11:31:48;;;;;;;9.13;7.60;;;;;;;27.00;31.03;94073.50;5041971;28;20409;-61
2023/06/25 11:34:45;;;;;;;8.87;6.40;;;;;;;26.85;31.18;94085.88;5065671;27;20406;-60
2023/06/25 11:37:18;;;;;;;9.10;6.35;;;;;;;26.50;32.64;94072.41;5049763;28;20078;-63
2023/06/25 11:39:46;;;;;;;7.57;5.90;;;;;;;27.91;30.96;94074.47;5052033;28;20044;-61
2023/06/25 11:42:16;;;;;;;8.10;6.57;;;;;;;27.41;31.05;94079.19;5051432;28;20063;-61
2023/06/25 11:44:44;;;;;;;7.65;6.07;;;;;;;27.72;30.36;94074.34;5048773;28;20037;-60
2023/06/25 11:47:14;;;;;;;7.50;6.07;;;;;;;28.00;29.17;94070.53;5053109;28;20460;-57
2023/06/25 11:49:41;;;;;;;8.35;6.28;;;;;;;26.63;27.99;94074.72;5053362;27;20047;-59
2023/06/25 11:52:07;;;;;;;8.13;6.13;;;;;;;27.02;28.53;94066.06;5059908;27;20056;-60
2023/06/25 11:54:34;;;;;;;6.88;5.50;;;;;;;26.61;28.21;94072.41;5067493;27;20049;-60
2023/06/25 11:57:01;;;;;;;7.90;5.80;;;;;;;27.20;27.39;94063.91;5054581;27;20047;-61
2023/06/25 11:59:28;;;;;;;13.83;10.53;;;;;;;26.78;27.40;94063.88;5049202;28;20057;-60
2023/06/25 12:05:49;;;;;;;8.00;5.78;;;;;;;28.56;27.80;94061.53;5043123;27;20738;-60
2023/06/25 12:08:15;;;;;;;7.38;5.65;;;;;;;28.21;27.85;94054.69;5026271;28;20052;-60
2023/06/25 12:10:42;;;;;;;8.57;5.70;;;;;;;27.46;28.37;94061.44;5007771;28;20129;-60
2023/06/25 12:13:09;;;;;;;7.40;6.00;;;;;;;27.07;30.97;94054.00;5009395;28;20123;-60
2023/06/25 12:15:35;;;;;;;8.60;6.63;;;;;;;26.15;31.25;94056.91;5014763;28;20422;-60
2023/06/25 12:18:02;;;;;;;7.72;5.85;;;;;;;27.34;30.42;94051.56;5026696;28;20055;-59
2023/06/25 12:21:37;;;;;;;7.82;5.80;;;;;;;27.88;28.57;94047.31;4984464;28;20389;-59
2023/06/25 12:24:04;;;;;;;7.40;5.80;;;;;;;28.08;29.35;94046.84;4960047;28;20077;-60
2023/06/25 12:28:07;;;;;;;6.80;5.70;;;;;;;27.90;26.65;94041.91;5070153;27;20472;-60
2023/06/25 12:30:33;;;;;;;7.22;5.53;;;;;;;28.39;25.01;94041.94;5044224;28;20110;-60
2023/06/25 12:33:00;;;;;;;6.57;5.28;;;;;;;28.33;25.55;94037.63;5039442;28;20049;-60
2023/06/25 12:35:28;;;;;;;6.85;5.40;;;;;;;28.32;25.86;94038.94;5046491;28;20052;-60
2023/06/25 12:37:55;;;;;;;7.60;5.70;;;;;;;28.15;26.28;94036.28;5044855;28;20068;-60
2023/06/25 12:40:21;;;;;;;6.90;5.63;;;;;;;28.64;25.89;94039.09;5045129;28;20097;-65
2023/06/25 12:42:48;;;;;;;7.20;5.70;;;;;;;28.52;26.34;94038.47;5043042;28;20537;-62
2023/06/25 12:45:17;;;;;;;7.65;5.40;;;;;;;27.80;26.35;94038.63;5046594;28;20501;-61
2023/06/25 12:47:43;;;;;;;6.88;5.55;;;;;;;27.01;26.40;94036.38;5042195;28;20049;-60
2023/06/25 12:50:11;;;;;;;7.47;5.70;;;;;;;26.95;24.92;94034.88;5043918;28;20070;-60
2023/06/25 12:52:38;;;;;;;7.60;5.40;;;;;;;27.80;25.47;94035.06;5040660;28;21515;-59
2023/06/25 12:55:05;;;;;;;7.57;5.88;;;;;;;28.03;24.98;94027.16;5057480;28;20494;-61
2023/06/25 12:57:35;;;;;;;6.97;5.20;;;;;;;28.30;25.07;94019.69;5044705;28;20051;-61
2023/06/25 13:00:05;;;;;;;6.78;5.28;;;;;;;28.87;25.02;94028.28;5058352;28;20047;-61
2023/06/25 13:02:32;;;;;;;7.30;5.70;;;;;;;28.68;25.25;94016.97;5052175;28;20540;-61
2023/06/25 13:05:00;;;;;;;7.80;5.57;;;;;;;29.08;26.17;94014.38;5054295;28;20463;-61
2023/06/25 13:07:26;;;;;;;7.00;5.50;;;;;;;28.03;25.39;94008.19;5056076;28;20044;-62
2023/06/25 13:09:53;;;;;;;6.70;5.35;;;;;;;27.84;25.67;94025.00;5053723;28;20486;-61
2023/06/25 13:12:20;;;;;;;7.50;5.80;;;;;;;27.38;25.81;94012.56;5058836;28;20059;-62
2023/06/25 13:14:47;;;;;;;6.80;5.47;;;;;;;28.26;25.79;94010.78;5064053;28;20047;-62
2023/06/25 13:17:13;;;;;;;6.93;5.37;;;;;;;27.91;24.03;94011.63;5064358;28;20057;-60
2023/06/25 13:19:41;;;;;;;6.95;5.50;;;;;;;27.66;25.58;94014.41;5063580;28;20485;-61
2023/06/25 13:22:08;;;;;;;7.95;5.90;;;;;;;27.88;25.34;94005.75;5063524;28;20190;-62
2023/06/25 13:24:35;;;;;;;7.57;6.00;;;;;;;27.89;24.63;94015.75;5064386;28;20037;-61
2023/06/25 13:27:03;;;;;;;7.20;5.70;;;;;;;27.88;24.96;94005.75;5076473;28;20105;-62
2023/06/25 13:29:30;;;;;;;6.83;5.50;;;;;;;28.39;24.78;94005.25;5069002;28;20052;-61
2023/06/25 13:31:57;;;;;;;7.82;5.40;;;;;;;28.73;24.66;94007.66;5093416;28;20472;-61
2023/06/25 13:34:23;;;;;;;7.70;5.60;;;;;;;28.82;25.29;94009.34;5084281;28;20050;-61
2023/06/25 13:36:50;;;;;;;7.03;5.60;;;;;;;28.07;27.50;94002.25;5084933;28;20389;-62
2023/06/25 13:39:17;;;;;;;7.30;5.68;;;;;;;28.00;26.70;94005.66;5053533;28;20045;-63
2023/06/25 13:41:44;;;;;;;6.60;5.50;;;;;;;27.68;26.74;94003.38;5071502;28;20526;-62
2023/06/25 13:44:10;;;;;;;6.93;5.50;;;;;;;28.15;25.67;94008.84;5071511;28;20128;-61
2023/06/25 13:46:37;;;;;;;8.18;5.50;;;;;;;28.73;24.94;94006.91;5069890;28;20774;-61
2023/06/25 13:49:04;;;;;;;7.13;5.30;;;;;;;29.33;24.61;93998.09;5053520;28;20129;-61
2023/06/25 13:51:30;;;;;;;7.40;5.53;;;;;;;29.41;24.65;94001.06;5070500;28;20063;-61
2023/06/25 13:53:57;;;;;;;6.47;5.10;;;;;;;29.56;24.66;93998.50;5053588;28;20055;-61
2023/06/25 13:56:24;;;;;;;7.13;5.65;;;;;;;29.31;26.09;93994.28;5070366;28;20497;-61
2023/06/25 13:58:51;;;;;;;9.40;6.13;;;;;;;29.93;25.39;93987.63;5070996;28;20055;-61
2023/06/25 14:01:18;;;;;;;6.97;5.65;;;;;;;29.94;25.28;93989.91;5070254;28;20048;-61
2023/06/25 14:03:44;;;;;;;6.53;5.43;;;;;;;30.21;24.20;93998.41;5070443;28;20040;-62
2023/06/25 14:06:11;;;;;;;8.93;5.70;;;;;;;30.16;23.87;93990.78;5040000;28;20113;-60
2023/06/25 14:08:38;;;;;;;7.13;5.90;;;;;;;29.63;24.72;93994.28;5070783;28;20047;-62
2023/06/25 14:11:05;;;;;;;6.38;5.38;;;;;;;29.56;25.25;93995.69;5070924;28;20048;-61
2023/06/25 14:13:33;;;;;;;6.90;5.60;;;;;;;29.13;25.28;93988.13;5059078;28;20037;-61
2023/06/25 14:16:00;;;;;;;6.95;5.40;;;;;;;29.42;25.17;93983.56;5068905;28;20033;-61
2023/06/25 14:18:41;;;;;;;7.27;5.40;;;;;;;29.63;25.16;93977.31;5069404;28;20056;-62
2023/06/25 14:21:08;;;;;;;7.00;5.60;;;;;;;29.94;25.22;93972.94;5076780;28;20040;-62